CYYL

Lynn Lake Airport

Lynn Lake, Manitoba, Canada
TAF CYYL 171238Z 1713/1801 18008KT P6SM SCT070 BKN120 BKN220 FM171600 22012G22KT P6SM SCT050 BKN090 TEMPO 1720/1801 P6SM VCTS BKN050CB RMK FCST BASED ON AUTO OBS. NXT FCST BY 171900Z
Issued Valid From Valid To
Aug-17 @ 12:38 UTC
(2 hours ago)
Aug-17 @ 13:00 UTC
(2 hours ago)
Aug-18 @ 01:00 UTC
(in 10 hours)
Aug-17 @ 13:00 to Aug-17 @ 16:00
TAF CYYL 171238Z 1713/1801 18008KT P6SM SCT070 BKN120 BKN220
Wind Visibility Clouds
180° at 8 knots Greater than 6 miles
  • Scattered at 7,000' AGL
  • Broken at 12,000' AGL
  • Broken at 22,000' AGL
From Aug-17 @ 16:00 to Aug-18 @ 01:00
FM171600 22012G22KT P6SM SCT050 BKN090
Wind Visibility Clouds
220° at 12 knots
 Gusting to 22 knots
Greater than 6 miles
  • Scattered at 5,000' AGL
  • Broken at 9,000' AGL
Temporary Aug-17 @ 20:00 to Aug-18 @ 01:00
TEMPO 1720/1801 P6SM VCTS BKN050CB RMK FCST BASED ON AUTO OBS. NXT FCST BY 171900Z
Visibility Clouds Conditions
Greater than 6 miles
  • Broken at 5,000' AGL
  • Area Thunderstorm
TAF CYYL 171238Z 1713/1801 18008KT P6SM SCT070 BKN120 BKN220 FM171600 22012G22KT P6SM SCT050 BKN090 TEMPO 1720/1801 P6SM VCTS BKN050CB RMK FCST BASED ON AUTO OBS. NXT FCST BY 171900Z
Issued Aug-17 @ 12:38 UTC
(2 hours ago)
Valid From Aug-17 @ 13:00 UTC
(2 hours ago)
Valid To Aug-18 @ 01:00 UTC
(in 10 hours)
Aug-17 @ 13:00 - Aug-17 @ 16:00
Wind Visibility
180° at 8 knots Greater than 6 miles
Clouds
  • Scattered at 7,000' AGL
  • Broken at 12,000' AGL
  • Broken at 22,000' AGL
From Aug-17 @ 16:00 - Aug-18 @ 01:00
Wind Visibility
220° at 12 knots
 Gusting to 22 knots
Greater than 6 miles
Clouds
  • Scattered at 5,000' AGL
  • Broken at 9,000' AGL
Temporary Aug-17 @ 20:00 - Aug-18 @ 01:00
Clouds
  • Broken at 5,000' AGL
Conditions
  • Area Thunderstorm